createdAt,value
2023-02-24T00:00:51.711Z,12.70
2023-02-24T00:04:02.058Z,10.70
2023-02-24T00:07:26.856Z,16.38
2023-02-24T00:10:40.279Z,8.73
2023-02-24T00:13:47.475Z,11.45
2023-02-24T00:16:53.409Z,10.07
2023-02-24T00:20:02.985Z,9.23
2023-02-24T00:23:09.956Z,12.25
2023-02-24T00:26:19.498Z,9.57
2023-02-24T00:29:26.394Z,12.10
2023-02-24T00:32:30.715Z,12.82
2023-02-24T00:35:35.781Z,8.32
2023-02-24T00:38:49.088Z,8.82
2023-02-24T00:41:58.429Z,11.13
2023-02-24T00:45:10.109Z,13.35
2023-02-24T00:48:16.075Z,7.93
2023-02-24T00:51:25.619Z,10.45
2023-02-24T00:54:29.738Z,18.77
2023-02-24T01:00:44.233Z,14.07
2023-02-24T01:03:52.239Z,11.93
2023-02-24T01:07:02.782Z,11.88
2023-02-24T01:10:09.262Z,10.13
2023-02-24T01:13:14.098Z,9.02
2023-02-24T01:16:22.011Z,12.18
2023-02-24T01:19:32.594Z,7.45
2023-02-24T01:22:41.502Z,9.85
2023-02-24T01:25:48.575Z,11.63
2023-02-24T01:28:56.673Z,10.63
2023-02-24T01:32:04.434Z,11.32
2023-02-24T01:35:09.116Z,11.40
2023-02-24T01:38:13.417Z,9.80
2023-02-24T01:41:23.084Z,12.52
2023-02-24T01:45:16.331Z,11.88
2023-02-24T01:48:21.963Z,7.57
2023-02-24T01:51:38.538Z,11.70
2023-02-24T01:54:51.317Z,10.48
2023-02-24T01:57:57.590Z,13.00
2023-02-24T02:01:09.233Z,8.77
2023-02-24T02:04:25.070Z,8.20
2023-02-24T02:07:32.072Z,14.07
2023-02-24T02:10:39.795Z,9.35
2023-02-24T02:13:50.676Z,9.98
2023-02-24T02:17:27.596Z,17.27
2023-02-24T02:21:36.762Z,10.50
2023-02-24T02:24:56.875Z,8.85
2023-02-24T02:28:50.544Z,4.10
2023-02-24T02:33:09.994Z,10.48
2023-02-24T02:36:43.095Z,13.70
2023-02-24T02:40:18.795Z,13.65
2023-02-24T02:43:36.827Z,11.55
2023-02-24T02:46:58.202Z,9.73
2023-02-24T02:50:18.821Z,15.05
2023-02-24T02:53:37.699Z,9.07
2023-02-24T02:56:56.841Z,10.82
2023-02-24T03:00:14.291Z,9.77
2023-02-24T03:03:26.679Z,10.35
2023-02-24T03:06:42.364Z,11.88
2023-02-24T03:09:56.030Z,10.73
2023-02-24T03:13:06.469Z,12.03
2023-02-24T03:16:17.600Z,14.07
2023-02-24T03:19:37.561Z,9.60
2023-02-24T03:22:52.321Z,10.80
2023-02-24T03:26:17.704Z,7.43
2023-02-24T03:29:40.093Z,7.57
2023-02-24T03:33:03.163Z,7.15
2023-02-24T03:36:09.309Z,19.10
2023-02-24T03:39:20.198Z,11.40
2023-02-24T03:42:36.973Z,12.90
2023-02-24T03:45:48.620Z,8.18
2023-02-24T03:49:04.364Z,4.78
2023-02-24T03:52:32.984Z,10.70
2023-02-24T03:56:00.041Z,6.55
2023-02-24T03:59:25.146Z,6.93
2023-02-24T04:05:47.429Z,6.53
2023-02-24T04:09:01.708Z,9.90
2023-02-24T04:12:18.875Z,17.00
2023-02-24T04:15:30.267Z,9.65
2023-02-24T04:18:34.640Z,8.82
2023-02-24T04:21:43.690Z,12.57
2023-02-24T04:24:52.930Z,5.57
2023-02-24T04:28:00.758Z,12.10
2023-02-24T04:31:18.643Z,10.80
2023-02-24T04:34:24.323Z,9.55
2023-02-24T04:37:33.950Z,6.28
2023-02-24T04:40:41.273Z,11.45
2023-02-24T04:43:45.568Z,7.95
2023-02-24T04:49:55.253Z,12.93
2023-02-24T04:53:02.717Z,10.13
2023-02-24T04:56:09.288Z,12.38
2023-02-24T04:59:14.250Z,8.30
2023-02-24T05:02:21.648Z,11.25
2023-02-24T05:05:28.006Z,8.57
2023-02-24T05:08:33.311Z,8.10
2023-02-24T05:11:36.841Z,10.68
2023-02-24T05:14:40.236Z,13.60
2023-02-24T05:17:45.683Z,11.93
2023-02-24T05:21:10.291Z,8.85
2023-02-24T05:27:22.726Z,11.07
2023-02-24T05:30:27.991Z,10.95
2023-02-24T05:33:33.508Z,4.90
2023-02-24T05:36:43.416Z,10.65
2023-02-24T05:39:53.569Z,10.27
2023-02-24T05:43:04.209Z,6.97
2023-02-24T05:46:08.095Z,8.05
2023-02-24T05:49:23.515Z,9.35
2023-02-24T05:52:28.215Z,7.90
2023-02-24T05:55:36.658Z,7.10
2023-02-24T05:58:40.949Z,6.03
2023-02-24T06:01:45.942Z,8.38
2023-02-24T06:04:54.719Z,6.90
2023-02-24T06:08:13.684Z,5.80
2023-02-24T06:11:21.138Z,7.68
2023-02-24T06:14:26.511Z,4.78
2023-02-24T06:17:30.719Z,7.30
2023-02-24T06:23:43.181Z,3.95
2023-02-24T06:26:50.332Z,4.55
2023-02-24T06:29:56.783Z,5.63
2023-02-24T06:33:00.730Z,7.00
2023-02-24T06:36:07.812Z,4.03
2023-02-24T06:39:14.719Z,3.22
2023-02-24T06:42:19.306Z,3.60
2023-02-24T06:45:26.430Z,2.00
2023-02-24T06:48:31.131Z,6.80
2023-02-24T06:51:39.320Z,3.40
2023-02-24T06:54:42.759Z,5.25
2023-02-24T06:57:51.811Z,3.92
2023-02-24T07:00:59.315Z,4.60
2023-02-24T07:04:19.019Z,3.55
2023-02-24T07:07:24.697Z,9.00
2023-02-24T07:10:29.706Z,3.45
2023-02-24T07:13:34.861Z,4.78
2023-02-24T07:16:41.821Z,3.08
2023-02-24T07:19:46.714Z,3.90
2023-02-24T07:22:53.810Z,4.65
2023-02-24T07:25:59.343Z,3.88
2023-02-24T07:29:06.478Z,3.90
2023-02-24T07:32:12.843Z,3.10
2023-02-24T07:35:20.778Z,2.75
2023-02-24T07:38:26.166Z,2.08
2023-02-24T07:41:31.604Z,3.00
2023-02-24T07:44:36.139Z,3.88
2023-02-24T07:47:41.345Z,2.67
2023-02-24T07:50:44.751Z,4.38
2023-02-24T07:53:54.087Z,4.40
2023-02-24T07:56:59.998Z,3.10
2023-02-24T08:00:17.198Z,3.10
2023-02-24T08:03:22.631Z,2.38
2023-02-24T08:06:33.508Z,1.95
2023-02-24T08:09:56.355Z,3.67
2023-02-24T08:13:03.154Z,3.95
2023-02-24T08:16:12.037Z,1.80
2023-02-24T08:19:21.013Z,5.07
2023-02-24T08:22:37.646Z,7.05
2023-02-24T08:25:44.619Z,5.25
2023-02-24T08:28:49.186Z,4.57
2023-02-24T08:31:53.969Z,4.85
2023-02-24T08:35:03.107Z,5.03
2023-02-24T08:38:10.491Z,2.08
2023-02-24T08:41:20.607Z,2.58
2023-02-24T08:44:27.702Z,6.13
2023-02-24T08:47:36.307Z,1.42
2023-02-24T08:50:40.418Z,1.27
2023-02-24T08:53:47.291Z,2.33
2023-02-24T08:56:56.883Z,2.33
2023-02-24T09:00:00.488Z,1.38
2023-02-24T09:03:08.399Z,1.13
2023-02-24T09:06:12.091Z,1.42
2023-02-24T09:09:21.389Z,3.47
2023-02-24T09:12:30.469Z,2.00
2023-02-24T09:15:42.145Z,2.08
2023-02-24T09:19:10.138Z,1.20
2023-02-24T09:22:31.751Z,1.48
2023-02-24T09:25:45.109Z,2.70
2023-02-24T09:28:55.688Z,2.57
2023-02-24T09:32:04.602Z,2.00
2023-02-24T09:35:09.614Z,2.58
2023-02-24T09:38:16.626Z,2.67
2023-02-24T09:41:33.598Z,2.83
2023-02-24T09:44:41.529Z,2.92
2023-02-24T09:47:58.091Z,3.30
2023-02-24T09:51:06.143Z,2.75
2023-02-24T09:54:17.836Z,4.05
2023-02-24T09:57:37.726Z,2.20
2023-02-24T10:01:06.967Z,4.63
2023-02-24T10:05:07.642Z,6.65
2023-02-24T10:08:25.528Z,7.40
2023-02-24T10:11:34.318Z,4.53
2023-02-24T10:14:51.143Z,3.75
2023-02-24T10:18:06.005Z,3.25
2023-02-24T10:21:30.808Z,7.78
2023-02-24T10:24:47.401Z,6.38
2023-02-24T10:28:06.570Z,7.97
2023-02-24T10:31:25.791Z,8.30
2023-02-24T10:34:33.253Z,17.42
2023-02-24T10:37:36.942Z,5.75
2023-02-24T10:40:57.047Z,9.18
2023-02-24T10:44:04.959Z,10.88
2023-02-24T10:47:12.651Z,12.40
2023-02-24T10:50:27.655Z,11.57
2023-02-24T10:53:37.610Z,8.32
2023-02-24T10:56:55.380Z,10.40
2023-02-24T11:00:23.507Z,15.48
2023-02-24T11:03:36.178Z,11.57
2023-02-24T11:06:55.730Z,13.40
2023-02-24T11:10:13.876Z,15.18
2023-02-24T11:13:36.578Z,12.85
2023-02-24T11:17:05.782Z,10.30
2023-02-24T11:20:23.012Z,9.57
2023-02-24T11:23:35.096Z,12.05
2023-02-24T11:26:43.128Z,15.25
2023-02-24T11:30:18.322Z,18.60
2023-02-24T11:33:41.116Z,8.93
2023-02-24T11:37:00.825Z,15.23
2023-02-24T11:40:16.737Z,12.65
2023-02-24T11:43:30.132Z,16.85
2023-02-24T11:46:42.942Z,12.32
2023-02-24T11:49:52.904Z,17.95
2023-02-24T11:53:01.345Z,13.27
2023-02-24T11:56:11.867Z,12.50
2023-02-24T11:59:23.441Z,16.45
2023-02-24T12:02:43.624Z,12.60
2023-02-24T12:05:54.978Z,12.57
2023-02-24T12:09:09.699Z,11.68
2023-02-24T12:12:26.534Z,12.68
2023-02-24T12:15:36.545Z,8.85
2023-02-24T12:18:48.085Z,11.40
2023-02-24T12:21:59.354Z,12.60
2023-02-24T12:25:06.220Z,11.82
2023-02-24T12:28:28.377Z,11.15
2023-02-24T12:31:43.432Z,13.75
2023-02-24T12:35:08.066Z,11.07
2023-02-24T12:38:41.356Z,9.88
2023-02-24T12:42:05.934Z,8.55
2023-02-24T12:45:21.678Z,5.60
2023-02-24T12:49:12.126Z,4.00
2023-02-24T12:52:30.140Z,3.17
2023-02-24T12:55:48.169Z,5.80
2023-02-24T12:58:59.119Z,4.00
2023-02-24T13:02:18.448Z,4.80
2023-02-24T13:05:32.214Z,9.07
2023-02-24T13:08:47.370Z,6.40
2023-02-24T13:11:59.533Z,9.45
2023-02-24T13:15:08.205Z,8.63
2023-02-24T13:18:26.603Z,7.97
2023-02-24T13:21:30.917Z,9.85
2023-02-24T13:24:36.294Z,8.75
2023-02-24T13:27:44.143Z,7.85
2023-02-24T13:30:48.962Z,9.15
2023-02-24T13:33:55.303Z,8.40
2023-02-24T13:37:00.375Z,8.50
2023-02-24T13:40:28.246Z,9.77
2023-02-24T13:43:33.259Z,7.80
2023-02-24T13:47:04.712Z,8.93
2023-02-24T13:50:25.563Z,5.82
2023-02-24T13:53:56.654Z,5.78
2023-02-24T13:57:37.477Z,11.18
2023-02-24T14:01:07.167Z,6.75
2023-02-24T14:04:26.383Z,3.55
2023-02-24T14:07:38.983Z,4.38
2023-02-24T14:10:52.510Z,3.38
2023-02-24T14:13:58.973Z,2.10
2023-02-24T14:17:14.152Z,7.15
2023-02-24T14:20:22.459Z,5.30
2023-02-24T14:23:30.266Z,4.35
2023-02-24T14:26:44.311Z,4.18
2023-02-24T14:29:52.233Z,7.50
2023-02-24T14:32:57.333Z,5.22
2023-02-24T14:36:04.721Z,5.25
2023-02-24T14:39:42.798Z,4.20
2023-02-24T14:42:50.701Z,4.07
2023-02-24T14:45:57.947Z,5.57
2023-02-24T14:49:01.660Z,7.15
2023-02-24T14:52:12.731Z,6.53
2023-02-24T14:55:22.273Z,5.43
2023-02-24T14:58:30.905Z,5.72
2023-02-24T15:01:40.895Z,10.75
2023-02-24T15:04:47.536Z,5.20
2023-02-24T15:07:52.133Z,4.32
2023-02-24T15:10:58.800Z,5.30
2023-02-24T15:14:06.330Z,9.70
2023-02-24T15:17:18.131Z,5.10
2023-02-24T15:20:33.299Z,6.32
2023-02-24T15:23:41.283Z,9.13
2023-02-24T15:26:54.721Z,6.60
2023-02-24T15:30:06.753Z,5.38
2023-02-24T15:33:23.348Z,8.93
2023-02-24T15:36:32.449Z,10.50
2023-02-24T15:39:37.180Z,6.63
2023-02-24T15:42:51.880Z,5.05
2023-02-24T15:45:58.417Z,20.38
2023-02-24T15:49:05.005Z,9.30
2023-02-24T15:52:12.585Z,4.65
2023-02-24T15:55:19.402Z,5.28
2023-02-24T15:58:26.479Z,6.18
2023-02-24T16:01:32.734Z,7.10
2023-02-24T16:04:37.469Z,7.65
2023-02-24T16:07:43.346Z,8.35
2023-02-24T16:10:50.517Z,6.57
2023-02-24T16:13:59.769Z,8.05
2023-02-24T16:17:09.078Z,4.53
2023-02-24T16:20:19.297Z,4.03
2023-02-24T16:23:25.848Z,7.28
2023-02-24T16:26:29.904Z,5.97
2023-02-24T16:29:36.202Z,2.97
2023-02-24T16:32:39.965Z,6.10
2023-02-24T16:35:45.889Z,5.88
2023-02-24T16:38:51.218Z,7.95
2023-02-24T16:41:55.651Z,8.85
2023-02-24T16:45:02.525Z,8.25
2023-02-24T16:48:17.832Z,4.47
2023-02-24T16:51:24.739Z,4.55
2023-02-24T16:54:30.321Z,5.53
2023-02-24T16:57:33.807Z,10.43
2023-02-24T17:00:42.887Z,9.35
2023-02-24T17:03:52.099Z,4.88
2023-02-24T17:06:55.813Z,7.53
2023-02-24T17:09:59.622Z,8.27
2023-02-24T17:13:03.544Z,6.45
2023-02-24T17:16:09.182Z,5.15
2023-02-24T17:19:13.950Z,1.52
2023-02-24T17:22:17.725Z,4.78
2023-02-24T17:25:27.999Z,2.63
2023-02-24T17:28:31.755Z,5.65
2023-02-24T17:31:37.724Z,3.88
2023-02-24T17:34:41.577Z,4.95
2023-02-24T17:37:47.299Z,3.70
2023-02-24T17:40:52.342Z,2.40
2023-02-24T17:43:57.295Z,5.43
2023-02-24T17:47:12.938Z,2.60
2023-02-24T17:50:17.548Z,6.97
2023-02-24T17:57:14.490Z,4.43
2023-02-24T18:00:23.088Z,5.55
2023-02-24T18:03:34.824Z,4.93
2023-02-24T18:06:48.171Z,3.80
2023-02-24T18:10:27.737Z,3.93
2023-02-24T18:13:41.156Z,3.40
2023-02-24T18:17:02.808Z,9.35
2023-02-24T18:20:37.966Z,3.45
2023-02-24T18:23:56.536Z,4.00
2023-02-24T18:27:18.584Z,3.30
2023-02-24T18:30:44.018Z,1.92
2023-02-24T18:34:08.616Z,3.17
2023-02-24T18:38:01.329Z,7.03
2023-02-24T18:41:24.514Z,2.97
2023-02-24T18:44:58.370Z,4.03
2023-02-24T18:48:21.113Z,3.78
2023-02-24T18:51:52.054Z,4.57
2023-02-24T18:55:23.839Z,4.90
2023-02-24T18:58:56.589Z,4.47
2023-02-24T19:02:27.209Z,5.57
2023-02-24T19:06:13.971Z,6.80
2023-02-24T19:09:56.035Z,4.90
2023-02-24T19:13:31.447Z,4.32
2023-02-24T19:17:22.609Z,5.97
2023-02-24T19:20:53.416Z,17.80
2023-02-24T19:24:30.610Z,23.08
2023-02-24T19:27:55.388Z,18.10
2023-02-24T19:31:33.196Z,10.57
2023-02-24T19:34:56.680Z,8.15
2023-02-24T19:38:33.747Z,8.02
2023-02-24T19:42:15.327Z,7.32
2023-02-24T19:49:10.271Z,9.25
2023-02-24T19:52:43.103Z,9.82
2023-02-24T19:56:10.770Z,7.47
2023-02-24T19:59:36.083Z,7.40
2023-02-24T20:03:12.309Z,10.30
2023-02-24T20:06:49.092Z,11.93
2023-02-24T20:10:22.435Z,12.65
2023-02-24T20:13:48.151Z,9.48
2023-02-24T20:17:17.036Z,8.55
2023-02-24T20:20:27.699Z,9.30
2023-02-24T20:23:52.503Z,9.15
2023-02-24T20:27:00.367Z,6.22
2023-02-24T20:30:04.613Z,5.35
2023-02-24T20:36:15.836Z,5.37
2023-02-24T20:39:24.916Z,5.93
2023-02-24T20:42:28.854Z,5.28
2023-02-24T20:45:36.321Z,8.32
2023-02-24T20:48:40.564Z,5.75
2023-02-24T20:51:45.129Z,4.22
2023-02-24T20:54:50.778Z,4.05
2023-02-24T20:57:54.848Z,9.80
2023-02-24T21:00:58.573Z,5.03
2023-02-24T21:04:03.170Z,3.15
2023-02-24T21:07:08.246Z,5.35
2023-02-24T21:10:14.698Z,6.38
2023-02-24T21:13:20.487Z,5.22
2023-02-24T21:16:24.875Z,6.07
2023-02-24T21:19:31.888Z,6.38
2023-02-24T21:22:36.215Z,7.20
2023-02-24T21:25:41.308Z,6.82
2023-02-24T21:28:56.977Z,5.40
2023-02-24T21:32:01.448Z,4.57
2023-02-24T21:35:06.276Z,5.20
2023-02-24T21:38:11.024Z,3.85
2023-02-24T21:41:19.645Z,3.13
2023-02-24T21:44:23.212Z,3.75
2023-02-24T21:47:26.743Z,2.20
2023-02-24T21:50:30.200Z,2.30
2023-02-24T21:53:35.835Z,2.65
2023-02-24T21:56:41.758Z,2.85
2023-02-24T21:59:45.807Z,2.67
2023-02-24T22:02:54.522Z,1.83
2023-02-24T22:05:59.283Z,1.33
2023-02-24T22:09:05.975Z,1.50
2023-02-24T22:12:12.950Z,1.42
2023-02-24T22:15:17.201Z,2.00
2023-02-24T22:18:22.296Z,0.47
2023-02-24T22:21:29.010Z,3.83
2023-02-24T22:24:33.027Z,1.30
2023-02-24T22:30:42.686Z,0.55
2023-02-24T22:33:47.601Z,3.92
2023-02-24T22:36:51.244Z,0.80
2023-02-24T22:39:55.440Z,0.98
2023-02-24T22:46:08.075Z,0.80
2023-02-24T22:49:12.671Z,0.57
2023-02-24T22:52:17.008Z,3.10
2023-02-24T22:55:21.763Z,1.45
2023-02-24T22:58:27.623Z,1.38
2023-02-24T23:01:34.198Z,2.80
2023-02-24T23:04:39.510Z,1.58
2023-02-24T23:07:45.591Z,1.70
2023-02-24T23:10:49.590Z,1.80
2023-02-24T23:13:55.987Z,2.30
2023-02-24T23:17:00.205Z,1.13
2023-02-24T23:20:06.419Z,3.03
2023-02-24T23:23:12.704Z,0.95
2023-02-24T23:26:19.956Z,2.40
2023-02-24T23:29:27.957Z,0.80
2023-02-24T23:32:33.000Z,2.03
2023-02-24T23:35:37.273Z,1.15
2023-02-24T23:41:45.702Z,1.73
2023-02-24T23:44:50.966Z,1.55
2023-02-24T23:47:55.048Z,1.85
2023-02-24T23:50:59.190Z,1.33
2023-02-24T23:54:03.811Z,2.72
2023-02-24T23:57:08.165Z,3.13
